sensor_id;sensor_type;location;lat;lon;timestamp;temperature;humidity
57829;DHT22;43657;52.698;6.314;2024-01-25T00:00:41;6.80;99.90
57829;DHT22;43657;52.698;6.314;2024-01-25T00:03:06;6.80;99.90
57829;DHT22;43657;52.698;6.314;2024-01-25T00:05:32;6.70;99.90
57829;DHT22;43657;52.698;6.314;2024-01-25T00:07:58;6.60;99.90
57829;DHT22;43657;52.698;6.314;2024-01-25T00:10:23;6.60;99.90
57829;DHT22;43657;52.698;6.314;2024-01-25T00:12:49;6.50;99.90
57829;DHT22;43657;52.698;6.314;2024-01-25T00:15:15;6.40;99.90
57829;DHT22;43657;52.698;6.314;2024-01-25T00:17:41;6.30;99.90
57829;DHT22;43657;52.698;6.314;2024-01-25T00:20:09;6.30;99.90
57829;DHT22;43657;52.698;6.314;2024-01-25T00:22:35;6.20;99.90
57829;DHT22;43657;52.698;6.314;2024-01-25T00:25:00;6.20;99.90
57829;DHT22;43657;52.698;6.314;2024-01-25T00:27:26;6.10;99.90
57829;DHT22;43657;52.698;6.314;2024-01-25T00:29:52;6.10;99.90
57829;DHT22;43657;52.698;6.314;2024-01-25T00:32:17;6.00;99.90
57829;DHT22;43657;52.698;6.314;2024-01-25T00:34:43;6.00;99.90
57829;DHT22;43657;52.698;6.314;2024-01-25T00:37:09;6.00;99.90
57829;DHT22;43657;52.698;6.314;2024-01-25T00:39:35;5.90;99.90
57829;DHT22;43657;52.698;6.314;2024-01-25T00:42:05;5.90;99.90
57829;DHT22;43657;52.698;6.314;2024-01-25T00:44:32;5.90;99.90
57829;DHT22;43657;52.698;6.314;2024-01-25T00:46:58;5.80;99.90
57829;DHT22;43657;52.698;6.314;2024-01-25T00:49:24;5.80;99.90
57829;DHT22;43657;52.698;6.314;2024-01-25T00:51:50;5.80;99.90
57829;DHT22;43657;52.698;6.314;2024-01-25T00:54:21;5.70;99.90
57829;DHT22;43657;52.698;6.314;2024-01-25T00:56:47;5.70;99.90
57829;DHT22;43657;52.698;6.314;2024-01-25T00:59:16;5.70;99.90
57829;DHT22;43657;52.698;6.314;2024-01-25T01:01:43;5.60;99.90
57829;DHT22;43657;52.698;6.314;2024-01-25T01:04:11;5.60;99.90
57829;DHT22;43657;52.698;6.314;2024-01-25T01:06:37;5.60;99.90
57829;DHT22;43657;52.698;6.314;2024-01-25T01:09:03;5.50;99.90
57829;DHT22;43657;52.698;6.314;2024-01-25T01:11:29;5.50;99.90
57829;DHT22;43657;52.698;6.314;2024-01-25T01:13:55;5.40;99.90
57829;DHT22;43657;52.698;6.314;2024-01-25T01:16:21;5.40;99.90
57829;DHT22;43657;52.698;6.314;2024-01-25T01:18:46;5.30;99.90
57829;DHT22;43657;52.698;6.314;2024-01-25T01:21:12;5.40;99.90
57829;DHT22;43657;52.698;6.314;2024-01-25T01:23:37;5.40;99.90
57829;DHT22;43657;52.698;6.314;2024-01-25T01:26:04;5.50;99.90
57829;DHT22;43657;52.698;6.314;2024-01-25T01:28:29;5.50;99.90
57829;DHT22;43657;52.698;6.314;2024-01-25T01:30:55;5.60;99.90
57829;DHT22;43657;52.698;6.314;2024-01-25T01:33:20;5.60;99.90
57829;DHT22;43657;52.698;6.314;2024-01-25T01:35:46;5.60;99.90
57829;DHT22;43657;52.698;6.314;2024-01-25T01:38:11;5.60;99.90
57829;DHT22;43657;52.698;6.314;2024-01-25T01:40:37;5.60;99.90
57829;DHT22;43657;52.698;6.314;2024-01-25T01:43:03;5.50;99.90
57829;DHT22;43657;52.698;6.314;2024-01-25T01:45:29;5.50;99.90
57829;DHT22;43657;52.698;6.314;2024-01-25T01:47:56;5.40;99.90
57829;DHT22;43657;52.698;6.314;2024-01-25T01:50:22;5.40;99.90
57829;DHT22;43657;52.698;6.314;2024-01-25T01:52:49;5.40;99.90
57829;DHT22;43657;52.698;6.314;2024-01-25T01:55:18;5.40;99.90
57829;DHT22;43657;52.698;6.314;2024-01-25T01:57:45;5.30;99.90
57829;DHT22;43657;52.698;6.314;2024-01-25T02:00:14;5.30;99.90
57829;DHT22;43657;52.698;6.314;2024-01-25T02:02:40;5.20;99.90
57829;DHT22;43657;52.698;6.314;2024-01-25T02:05:06;5.20;99.90
57829;DHT22;43657;52.698;6.314;2024-01-25T02:07:32;5.20;99.90
57829;DHT22;43657;52.698;6.314;2024-01-25T02:09:57;5.20;99.90
57829;DHT22;43657;52.698;6.314;2024-01-25T02:12:23;5.20;99.90
57829;DHT22;43657;52.698;6.314;2024-01-25T02:14:48;5.20;99.90
57829;DHT22;43657;52.698;6.314;2024-01-25T02:17:14;5.20;99.90
57829;DHT22;43657;52.698;6.314;2024-01-25T02:19:39;5.20;99.90
57829;DHT22;43657;52.698;6.314;2024-01-25T02:22:05;5.20;99.90
57829;DHT22;43657;52.698;6.314;2024-01-25T02:24:31;5.20;99.90
57829;DHT22;43657;52.698;6.314;2024-01-25T02:26:57;5.20;99.90
57829;DHT22;43657;52.698;6.314;2024-01-25T02:29:22;5.20;99.90
57829;DHT22;43657;52.698;6.314;2024-01-25T02:31:48;5.10;99.90
57829;DHT22;43657;52.698;6.314;2024-01-25T02:34:14;5.10;99.90
57829;DHT22;43657;52.698;6.314;2024-01-25T02:36:39;5.10;99.90
57829;DHT22;43657;52.698;6.314;2024-01-25T02:39:05;5.00;99.90
57829;DHT22;43657;52.698;6.314;2024-01-25T02:41:33;5.00;99.90
57829;DHT22;43657;52.698;6.314;2024-01-25T02:44:00;5.00;99.90
57829;DHT22;43657;52.698;6.314;2024-01-25T02:46:25;5.00;99.90
57829;DHT22;43657;52.698;6.314;2024-01-25T02:48:51;4.90;99.90
57829;DHT22;43657;52.698;6.314;2024-01-25T02:51:16;4.90;99.90
57829;DHT22;43657;52.698;6.314;2024-01-25T02:53:42;4.90;99.90
57829;DHT22;43657;52.698;6.314;2024-01-25T02:56:07;4.90;99.90
57829;DHT22;43657;52.698;6.314;2024-01-25T02:58:33;4.90;99.90
57829;DHT22;43657;52.698;6.314;2024-01-25T03:00:59;4.90;99.90
57829;DHT22;43657;52.698;6.314;2024-01-25T03:03:24;4.80;99.90
57829;DHT22;43657;52.698;6.314;2024-01-25T03:05:51;4.80;99.90
57829;DHT22;43657;52.698;6.314;2024-01-25T03:08:17;4.80;99.90
57829;DHT22;43657;52.698;6.314;2024-01-25T03:10:43;4.80;99.90
57829;DHT22;43657;52.698;6.314;2024-01-25T03:13:08;4.70;99.90
57829;DHT22;43657;52.698;6.314;2024-01-25T03:15:34;4.70;99.90
57829;DHT22;43657;52.698;6.314;2024-01-25T03:18:00;4.70;99.90
57829;DHT22;43657;52.698;6.314;2024-01-25T03:20:25;4.70;99.90
57829;DHT22;43657;52.698;6.314;2024-01-25T03:22:51;4.70;99.90
57829;DHT22;43657;52.698;6.314;2024-01-25T03:25:16;4.70;99.90
57829;DHT22;43657;52.698;6.314;2024-01-25T03:27:42;4.70;99.90
57829;DHT22;43657;52.698;6.314;2024-01-25T03:30:08;4.60;99.90
57829;DHT22;43657;52.698;6.314;2024-01-25T03:32:34;4.70;99.90
57829;DHT22;43657;52.698;6.314;2024-01-25T03:35:00;4.70;99.90
57829;DHT22;43657;52.698;6.314;2024-01-25T03:37:25;4.60;99.90
57829;DHT22;43657;52.698;6.314;2024-01-25T03:39:51;4.60;99.90
57829;DHT22;43657;52.698;6.314;2024-01-25T03:42:16;4.60;99.90
57829;DHT22;43657;52.698;6.314;2024-01-25T03:44:42;4.50;99.90
57829;DHT22;43657;52.698;6.314;2024-01-25T03:47:10;4.60;99.90
57829;DHT22;43657;52.698;6.314;2024-01-25T03:49:36;4.50;99.90
57829;DHT22;43657;52.698;6.314;2024-01-25T03:52:01;4.50;99.90
57829;DHT22;43657;52.698;6.314;2024-01-25T03:54:28;4.40;99.90
57829;DHT22;43657;52.698;6.314;2024-01-25T03:56:53;4.40;99.90
57829;DHT22;43657;52.698;6.314;2024-01-25T03:59:19;4.30;99.90
57829;DHT22;43657;52.698;6.314;2024-01-25T04:01:44;4.30;99.90
57829;DHT22;43657;52.698;6.314;2024-01-25T04:04:11;4.20;99.90
57829;DHT22;43657;52.698;6.314;2024-01-25T04:06:43;4.10;99.90
57829;DHT22;43657;52.698;6.314;2024-01-25T04:09:09;4.10;99.90
57829;DHT22;43657;52.698;6.314;2024-01-25T04:11:36;4.00;99.90
57829;DHT22;43657;52.698;6.314;2024-01-25T04:14:02;4.00;99.90
57829;DHT22;43657;52.698;6.314;2024-01-25T04:16:27;3.90;99.90
57829;DHT22;43657;52.698;6.314;2024-01-25T04:18:53;3.90;99.90
57829;DHT22;43657;52.698;6.314;2024-01-25T04:21:18;3.90;99.90
57829;DHT22;43657;52.698;6.314;2024-01-25T04:23:44;3.90;99.90
57829;DHT22;43657;52.698;6.314;2024-01-25T04:26:10;3.80;99.90
57829;DHT22;43657;52.698;6.314;2024-01-25T04:28:35;3.80;99.90
57829;DHT22;43657;52.698;6.314;2024-01-25T04:31:02;3.80;99.90
57829;DHT22;43657;52.698;6.314;2024-01-25T04:33:29;3.70;99.90
57829;DHT22;43657;52.698;6.314;2024-01-25T04:35:54;3.70;99.90
57829;DHT22;43657;52.698;6.314;2024-01-25T04:38:20;3.60;99.90
57829;DHT22;43657;52.698;6.314;2024-01-25T04:40:46;3.60;99.90
57829;DHT22;43657;52.698;6.314;2024-01-25T04:43:11;3.60;99.90
57829;DHT22;43657;52.698;6.314;2024-01-25T04:45:37;3.60;99.90
57829;DHT22;43657;52.698;6.314;2024-01-25T04:48:03;3.60;99.90
57829;DHT22;43657;52.698;6.314;2024-01-25T04:50:29;3.60;99.90
57829;DHT22;43657;52.698;6.314;2024-01-25T04:52:55;3.50;99.90
57829;DHT22;43657;52.698;6.314;2024-01-25T04:55:21;3.50;99.90
57829;DHT22;43657;52.698;6.314;2024-01-25T04:57:46;3.50;99.90
57829;DHT22;43657;52.698;6.314;2024-01-25T05:00:13;3.50;99.90
57829;DHT22;43657;52.698;6.314;2024-01-25T05:02:39;3.50;99.90
57829;DHT22;43657;52.698;6.314;2024-01-25T05:05:05;3.50;99.90
57829;DHT22;43657;52.698;6.314;2024-01-25T05:07:30;3.50;99.90
57829;DHT22;43657;52.698;6.314;2024-01-25T05:09:57;3.50;99.90
57829;DHT22;43657;52.698;6.314;2024-01-25T05:12:22;3.50;99.90
57829;DHT22;43657;52.698;6.314;2024-01-25T05:14:48;3.50;99.90
57829;DHT22;43657;52.698;6.314;2024-01-25T05:17:13;3.50;99.90
57829;DHT22;43657;52.698;6.314;2024-01-25T05:19:39;3.40;99.90
57829;DHT22;43657;52.698;6.314;2024-01-25T05:22:04;3.40;99.90
57829;DHT22;43657;52.698;6.314;2024-01-25T05:24:33;3.40;99.90
57829;DHT22;43657;52.698;6.314;2024-01-25T05:26:59;3.40;99.90
57829;DHT22;43657;52.698;6.314;2024-01-25T05:29:24;3.30;99.90
57829;DHT22;43657;52.698;6.314;2024-01-25T05:31:50;3.20;99.90
57829;DHT22;43657;52.698;6.314;2024-01-25T05:34:16;3.10;99.90
57829;DHT22;43657;52.698;6.314;2024-01-25T05:36:41;3.00;99.90
57829;DHT22;43657;52.698;6.314;2024-01-25T05:39:07;3.00;99.90
57829;DHT22;43657;52.698;6.314;2024-01-25T05:41:33;2.90;99.90
57829;DHT22;43657;52.698;6.314;2024-01-25T05:43:59;2.80;99.90
57829;DHT22;43657;52.698;6.314;2024-01-25T05:46:25;2.80;99.90
57829;DHT22;43657;52.698;6.314;2024-01-25T05:48:51;2.70;99.90
57829;DHT22;43657;52.698;6.314;2024-01-25T05:51:17;2.60;99.90
57829;DHT22;43657;52.698;6.314;2024-01-25T05:53:43;2.60;99.90
57829;DHT22;43657;52.698;6.314;2024-01-25T05:56:09;2.60;99.90
57829;DHT22;43657;52.698;6.314;2024-01-25T05:58:34;2.50;99.90
57829;DHT22;43657;52.698;6.314;2024-01-25T06:01:00;2.40;99.90
57829;DHT22;43657;52.698;6.314;2024-01-25T06:03:26;2.40;99.90
57829;DHT22;43657;52.698;6.314;2024-01-25T06:05:51;2.30;99.90
57829;DHT22;43657;52.698;6.314;2024-01-25T06:08:17;2.30;99.90
57829;DHT22;43657;52.698;6.314;2024-01-25T06:10:42;2.30;99.90
57829;DHT22;43657;52.698;6.314;2024-01-25T06:13:08;2.20;99.90
57829;DHT22;43657;52.698;6.314;2024-01-25T06:15:34;2.20;99.90
57829;DHT22;43657;52.698;6.314;2024-01-25T06:18:00;2.20;99.90
57829;DHT22;43657;52.698;6.314;2024-01-25T06:20:26;2.30;99.90
57829;DHT22;43657;52.698;6.314;2024-01-25T06:22:51;2.30;99.90
57829;DHT22;43657;52.698;6.314;2024-01-25T06:25:17;2.30;99.90
57829;DHT22;43657;52.698;6.314;2024-01-25T06:27:42;2.20;99.90
57829;DHT22;43657;52.698;6.314;2024-01-25T06:30:09;2.30;99.90
57829;DHT22;43657;52.698;6.314;2024-01-25T06:32:35;2.30;99.90
57829;DHT22;43657;52.698;6.314;2024-01-25T06:35:00;2.30;99.90
57829;DHT22;43657;52.698;6.314;2024-01-25T06:37:26;2.30;99.90
57829;DHT22;43657;52.698;6.314;2024-01-25T06:39:51;2.20;99.90
57829;DHT22;43657;52.698;6.314;2024-01-25T06:42:17;2.20;99.90
57829;DHT22;43657;52.698;6.314;2024-01-25T06:44:43;2.20;99.90
57829;DHT22;43657;52.698;6.314;2024-01-25T06:47:08;2.10;99.90
57829;DHT22;43657;52.698;6.314;2024-01-25T06:49:34;2.10;99.90
57829;DHT22;43657;52.698;6.314;2024-01-25T06:51:59;2.10;99.90
57829;DHT22;43657;52.698;6.314;2024-01-25T06:54:25;2.10;99.90
57829;DHT22;43657;52.698;6.314;2024-01-25T06:56:50;2.10;99.90
57829;DHT22;43657;52.698;6.314;2024-01-25T06:59:17;2.20;99.90
57829;DHT22;43657;52.698;6.314;2024-01-25T07:01:42;2.20;99.90
57829;DHT22;43657;52.698;6.314;2024-01-25T07:04:08;2.20;99.90
57829;DHT22;43657;52.698;6.314;2024-01-25T07:06:33;2.10;99.90
57829;DHT22;43657;52.698;6.314;2024-01-25T07:08:59;2.10;99.90
57829;DHT22;43657;52.698;6.314;2024-01-25T07:11:24;2.10;99.90
57829;DHT22;43657;52.698;6.314;2024-01-25T07:13:51;2.10;99.90
57829;DHT22;43657;52.698;6.314;2024-01-25T07:16:16;2.10;99.90
57829;DHT22;43657;52.698;6.314;2024-01-25T07:18:42;2.10;99.90
57829;DHT22;43657;52.698;6.314;2024-01-25T07:21:07;2.20;99.90
57829;DHT22;43657;52.698;6.314;2024-01-25T07:23:34;2.20;99.90
57829;DHT22;43657;52.698;6.314;2024-01-25T07:25:59;2.20;99.90
57829;DHT22;43657;52.698;6.314;2024-01-25T07:28:25;2.20;99.90
57829;DHT22;43657;52.698;6.314;2024-01-25T07:30:51;2.20;99.90
57829;DHT22;43657;52.698;6.314;2024-01-25T07:33:16;2.30;99.90
57829;DHT22;43657;52.698;6.314;2024-01-25T07:35:43;2.30;99.90
57829;DHT22;43657;52.698;6.314;2024-01-25T07:38:12;2.40;99.90
57829;DHT22;43657;52.698;6.314;2024-01-25T07:40:37;2.40;99.90
57829;DHT22;43657;52.698;6.314;2024-01-25T07:43:03;2.40;99.90
57829;DHT22;43657;52.698;6.314;2024-01-25T07:45:29;2.40;99.90
57829;DHT22;43657;52.698;6.314;2024-01-25T07:47:54;2.40;99.90
57829;DHT22;43657;52.698;6.314;2024-01-25T07:50:20;2.50;99.90
57829;DHT22;43657;52.698;6.314;2024-01-25T07:52:45;2.60;99.90
57829;DHT22;43657;52.698;6.314;2024-01-25T07:55:12;2.60;99.90
57829;DHT22;43657;52.698;6.314;2024-01-25T07:57:37;2.70;99.90
57829;DHT22;43657;52.698;6.314;2024-01-25T08:00:03;2.70;99.90
57829;DHT22;43657;52.698;6.314;2024-01-25T08:02:30;2.80;99.90
57829;DHT22;43657;52.698;6.314;2024-01-25T08:04:55;2.80;99.90
57829;DHT22;43657;52.698;6.314;2024-01-25T08:07:23;2.90;99.90
57829;DHT22;43657;52.698;6.314;2024-01-25T08:09:48;3.00;99.90
57829;DHT22;43657;52.698;6.314;2024-01-25T08:12:17;3.10;99.90
57829;DHT22;43657;52.698;6.314;2024-01-25T08:14:42;3.10;99.90
57829;DHT22;43657;52.698;6.314;2024-01-25T08:17:09;3.10;99.90
57829;DHT22;43657;52.698;6.314;2024-01-25T08:19:35;3.20;99.90
57829;DHT22;43657;52.698;6.314;2024-01-25T08:22:00;3.20;99.90
57829;DHT22;43657;52.698;6.314;2024-01-25T08:24:27;3.20;99.90
57829;DHT22;43657;52.698;6.314;2024-01-25T08:26:53;3.30;99.90
57829;DHT22;43657;52.698;6.314;2024-01-25T08:29:18;3.30;99.90
57829;DHT22;43657;52.698;6.314;2024-01-25T08:31:44;3.30;99.90
57829;DHT22;43657;52.698;6.314;2024-01-25T08:34:09;3.30;99.90
57829;DHT22;43657;52.698;6.314;2024-01-25T08:36:35;3.40;99.90
57829;DHT22;43657;52.698;6.314;2024-01-25T08:39:01;3.40;99.90
57829;DHT22;43657;52.698;6.314;2024-01-25T08:41:27;3.50;99.90
57829;DHT22;43657;52.698;6.314;2024-01-25T08:43:52;3.50;99.90
57829;DHT22;43657;52.698;6.314;2024-01-25T08:46:18;3.50;99.90
57829;DHT22;43657;52.698;6.314;2024-01-25T08:48:44;3.60;99.90
57829;DHT22;43657;52.698;6.314;2024-01-25T08:51:09;3.70;99.90
57829;DHT22;43657;52.698;6.314;2024-01-25T08:53:35;3.70;99.90
57829;DHT22;43657;52.698;6.314;2024-01-25T08:56:01;3.80;99.90
57829;DHT22;43657;52.698;6.314;2024-01-25T08:58:26;3.80;99.90
57829;DHT22;43657;52.698;6.314;2024-01-25T09:00:52;3.90;99.90
57829;DHT22;43657;52.698;6.314;2024-01-25T09:03:17;3.90;99.90
57829;DHT22;43657;52.698;6.314;2024-01-25T09:05:43;4.00;99.90
57829;DHT22;43657;52.698;6.314;2024-01-25T09:08:13;4.00;99.90
57829;DHT22;43657;52.698;6.314;2024-01-25T09:10:39;4.10;99.90
57829;DHT22;43657;52.698;6.314;2024-01-25T09:13:05;4.10;99.90
57829;DHT22;43657;52.698;6.314;2024-01-25T09:15:31;4.20;99.90
57829;DHT22;43657;52.698;6.314;2024-01-25T09:17:56;4.30;99.90
57829;DHT22;43657;52.698;6.314;2024-01-25T09:20:22;4.30;99.90
57829;DHT22;43657;52.698;6.314;2024-01-25T09:22:47;4.40;99.90
57829;DHT22;43657;52.698;6.314;2024-01-25T09:25:13;4.50;99.90
57829;DHT22;43657;52.698;6.314;2024-01-25T09:27:39;4.60;99.90
57829;DHT22;43657;52.698;6.314;2024-01-25T09:30:07;4.60;99.90
57829;DHT22;43657;52.698;6.314;2024-01-25T09:32:33;4.80;99.90
57829;DHT22;43657;52.698;6.314;2024-01-25T09:34:59;4.80;99.90
57829;DHT22;43657;52.698;6.314;2024-01-25T09:37:25;4.90;99.90
57829;DHT22;43657;52.698;6.314;2024-01-25T09:39:51;5.00;99.90
57829;DHT22;43657;52.698;6.314;2024-01-25T09:42:17;5.10;99.90
57829;DHT22;43657;52.698;6.314;2024-01-25T09:44:43;5.20;99.90
57829;DHT22;43657;52.698;6.314;2024-01-25T09:47:10;5.30;99.90
57829;DHT22;43657;52.698;6.314;2024-01-25T09:49:35;5.40;99.90
57829;DHT22;43657;52.698;6.314;2024-01-25T09:52:04;5.40;99.90
57829;DHT22;43657;52.698;6.314;2024-01-25T09:54:34;5.50;99.90
57829;DHT22;43657;52.698;6.314;2024-01-25T09:57:16;5.50;99.90
57829;DHT22;43657;52.698;6.314;2024-01-25T09:59:43;5.60;99.90
57829;DHT22;43657;52.698;6.314;2024-01-25T10:02:09;5.60;99.90
57829;DHT22;43657;52.698;6.314;2024-01-25T10:04:35;5.70;99.90
57829;DHT22;43657;52.698;6.314;2024-01-25T10:07:01;5.80;99.90
57829;DHT22;43657;52.698;6.314;2024-01-25T10:09:26;5.80;99.90
57829;DHT22;43657;52.698;6.314;2024-01-25T10:11:52;5.90;99.90
57829;DHT22;43657;52.698;6.314;2024-01-25T10:14:18;6.00;99.90
57829;DHT22;43657;52.698;6.314;2024-01-25T10:16:45;6.00;99.90
57829;DHT22;43657;52.698;6.314;2024-01-25T10:19:12;6.10;99.90
57829;DHT22;43657;52.698;6.314;2024-01-25T10:21:37;6.10;99.90
57829;DHT22;43657;52.698;6.314;2024-01-25T10:24:05;6.20;99.90
57829;DHT22;43657;52.698;6.314;2024-01-25T10:26:30;6.30;99.90
57829;DHT22;43657;52.698;6.314;2024-01-25T10:28:56;6.30;99.90
57829;DHT22;43657;52.698;6.314;2024-01-25T10:31:25;6.40;99.90
57829;DHT22;43657;52.698;6.314;2024-01-25T10:33:54;6.40;99.90
57829;DHT22;43657;52.698;6.314;2024-01-25T10:36:24;6.50;99.90
57829;DHT22;43657;52.698;6.314;2024-01-25T10:38:53;6.50;99.90
57829;DHT22;43657;52.698;6.314;2024-01-25T10:41:19;6.50;99.90
57829;DHT22;43657;52.698;6.314;2024-01-25T10:43:45;6.60;99.90
57829;DHT22;43657;52.698;6.314;2024-01-25T10:46:11;6.60;99.90
57829;DHT22;43657;52.698;6.314;2024-01-25T10:48:37;6.70;99.90
57829;DHT22;43657;52.698;6.314;2024-01-25T10:51:04;6.70;99.90
57829;DHT22;43657;52.698;6.314;2024-01-25T10:53:32;6.80;99.90
57829;DHT22;43657;52.698;6.314;2024-01-25T10:55:59;6.80;99.90
57829;DHT22;43657;52.698;6.314;2024-01-25T10:58:33;6.90;99.90
57829;DHT22;43657;52.698;6.314;2024-01-25T11:01:01;6.90;99.90
57829;DHT22;43657;52.698;6.314;2024-01-25T11:03:29;6.90;99.90
57829;DHT22;43657;52.698;6.314;2024-01-25T11:06:06;6.90;99.90
57829;DHT22;43657;52.698;6.314;2024-01-25T11:08:33;6.90;99.90
57829;DHT22;43657;52.698;6.314;2024-01-25T11:10:59;6.90;99.90
57829;DHT22;43657;52.698;6.314;2024-01-25T11:13:27;6.90;99.90
57829;DHT22;43657;52.698;6.314;2024-01-25T11:15:52;6.90;99.90
57829;DHT22;43657;52.698;6.314;2024-01-25T11:18:18;7.00;99.90
57829;DHT22;43657;52.698;6.314;2024-01-25T11:20:47;7.10;99.90
57829;DHT22;43657;52.698;6.314;2024-01-25T11:23:15;7.30;99.90
57829;DHT22;43657;52.698;6.314;2024-01-25T11:25:44;7.30;99.90
57829;DHT22;43657;52.698;6.314;2024-01-25T11:28:14;7.40;99.90
57829;DHT22;43657;52.698;6.314;2024-01-25T11:30:43;7.60;99.90
57829;DHT22;43657;52.698;6.314;2024-01-25T11:33:10;7.70;99.90
57829;DHT22;43657;52.698;6.314;2024-01-25T11:35:35;7.80;99.90
57829;DHT22;43657;52.698;6.314;2024-01-25T11:38:01;8.00;99.90
57829;DHT22;43657;52.698;6.314;2024-01-25T11:40:27;8.10;99.90
57829;DHT22;43657;52.698;6.314;2024-01-25T11:42:57;8.30;99.90
57829;DHT22;43657;52.698;6.314;2024-01-25T11:45:22;8.70;99.90
57829;DHT22;43657;52.698;6.314;2024-01-25T11:47:48;8.90;99.90
57829;DHT22;43657;52.698;6.314;2024-01-25T11:50:14;9.00;99.90
57829;DHT22;43657;52.698;6.314;2024-01-25T11:52:40;9.10;99.90
57829;DHT22;43657;52.698;6.314;2024-01-25T11:55:07;9.20;99.90
57829;DHT22;43657;52.698;6.314;2024-01-25T11:57:38;9.10;99.90
57829;DHT22;43657;52.698;6.314;2024-01-25T12:00:07;9.10;99.90
57829;DHT22;43657;52.698;6.314;2024-01-25T12:02:38;9.20;99.90
57829;DHT22;43657;52.698;6.314;2024-01-25T12:05:04;9.50;99.90
57829;DHT22;43657;52.698;6.314;2024-01-25T12:07:31;9.70;99.90
57829;DHT22;43657;52.698;6.314;2024-01-25T12:10:04;9.90;99.90
57829;DHT22;43657;52.698;6.314;2024-01-25T12:12:30;9.70;99.90
57829;DHT22;43657;52.698;6.314;2024-01-25T12:14:59;9.40;99.90
57829;DHT22;43657;52.698;6.314;2024-01-25T12:17:33;9.20;99.90
57829;DHT22;43657;52.698;6.314;2024-01-25T12:19:59;8.90;99.90
57829;DHT22;43657;52.698;6.314;2024-01-25T12:22:29;8.80;99.90
57829;DHT22;43657;52.698;6.314;2024-01-25T12:24:56;8.80;99.90
57829;DHT22;43657;52.698;6.314;2024-01-25T12:27:22;8.80;99.90
57829;DHT22;43657;52.698;6.314;2024-01-25T12:29:50;8.80;99.90
57829;DHT22;43657;52.698;6.314;2024-01-25T12:32:16;9.10;99.90
57829;DHT22;43657;52.698;6.314;2024-01-25T12:34:42;9.40;99.90
57829;DHT22;43657;52.698;6.314;2024-01-25T12:37:09;9.70;99.90
57829;DHT22;43657;52.698;6.314;2024-01-25T12:39:34;10.00;99.90
57829;DHT22;43657;52.698;6.314;2024-01-25T12:42:00;10.30;99.90
57829;DHT22;43657;52.698;6.314;2024-01-25T12:44:26;10.60;99.90
57829;DHT22;43657;52.698;6.314;2024-01-25T12:46:51;10.80;99.90
57829;DHT22;43657;52.698;6.314;2024-01-25T12:49:17;10.80;99.90
57829;DHT22;43657;52.698;6.314;2024-01-25T12:51:43;10.80;99.90
57829;DHT22;43657;52.698;6.314;2024-01-25T12:54:09;10.80;99.90
57829;DHT22;43657;52.698;6.314;2024-01-25T12:56:35;10.70;99.90
57829;DHT22;43657;52.698;6.314;2024-01-25T12:59:00;10.70;99.90
57829;DHT22;43657;52.698;6.314;2024-01-25T13:01:26;10.70;99.90
57829;DHT22;43657;52.698;6.314;2024-01-25T13:03:52;10.80;99.90
57829;DHT22;43657;52.698;6.314;2024-01-25T13:06:18;10.80;99.90
57829;DHT22;43657;52.698;6.314;2024-01-25T13:08:43;10.70;99.90
57829;DHT22;43657;52.698;6.314;2024-01-25T13:11:09;10.60;99.90
57829;DHT22;43657;52.698;6.314;2024-01-25T13:13:35;10.40;99.90
57829;DHT22;43657;52.698;6.314;2024-01-25T13:16:00;10.30;99.90
57829;DHT22;43657;52.698;6.314;2024-01-25T13:18:26;10.00;99.90
57829;DHT22;43657;52.698;6.314;2024-01-25T13:20:51;9.80;99.90
57829;DHT22;43657;52.698;6.314;2024-01-25T13:23:17;9.70;99.90
57829;DHT22;43657;52.698;6.314;2024-01-25T13:25:42;9.60;99.90
57829;DHT22;43657;52.698;6.314;2024-01-25T13:28:08;9.50;99.90
57829;DHT22;43657;52.698;6.314;2024-01-25T13:30:33;9.40;99.90
57829;DHT22;43657;52.698;6.314;2024-01-25T13:32:59;9.40;99.90
57829;DHT22;43657;52.698;6.314;2024-01-25T13:35:25;9.40;99.90
57829;DHT22;43657;52.698;6.314;2024-01-25T13:37:50;9.30;99.90
57829;DHT22;43657;52.698;6.314;2024-01-25T13:40:16;9.30;99.90
57829;DHT22;43657;52.698;6.314;2024-01-25T13:42:41;9.20;99.90
57829;DHT22;43657;52.698;6.314;2024-01-25T13:45:07;9.20;99.90
57829;DHT22;43657;52.698;6.314;2024-01-25T13:47:33;9.20;99.90
57829;DHT22;43657;52.698;6.314;2024-01-25T13:49:58;9.10;99.90
57829;DHT22;43657;52.698;6.314;2024-01-25T13:52:24;9.10;99.90
57829;DHT22;43657;52.698;6.314;2024-01-25T13:54:49;9.10;99.90
57829;DHT22;43657;52.698;6.314;2024-01-25T13:57:15;9.10;99.90
57829;DHT22;43657;52.698;6.314;2024-01-25T13:59:41;9.10;99.90
57829;DHT22;43657;52.698;6.314;2024-01-25T14:02:07;9.10;99.90
57829;DHT22;43657;52.698;6.314;2024-01-25T14:04:32;9.10;99.90
57829;DHT22;43657;52.698;6.314;2024-01-25T14:06:58;9.10;99.90
57829;DHT22;43657;52.698;6.314;2024-01-25T14:09:23;9.00;99.90
57829;DHT22;43657;52.698;6.314;2024-01-25T14:11:49;9.00;99.90
57829;DHT22;43657;52.698;6.314;2024-01-25T14:14:14;9.00;99.90
57829;DHT22;43657;52.698;6.314;2024-01-25T14:16:40;9.00;99.90
57829;DHT22;43657;52.698;6.314;2024-01-25T14:19:06;8.90;99.90
57829;DHT22;43657;52.698;6.314;2024-01-25T14:21:31;8.80;99.90
57829;DHT22;43657;52.698;6.314;2024-01-25T14:23:57;8.80;99.90
57829;DHT22;43657;52.698;6.314;2024-01-25T14:26:23;8.70;99.90
57829;DHT22;43657;52.698;6.314;2024-01-25T14:28:48;8.70;99.90
57829;DHT22;43657;52.698;6.314;2024-01-25T14:31:14;8.60;99.90
57829;DHT22;43657;52.698;6.314;2024-01-25T14:33:40;8.60;99.90
57829;DHT22;43657;52.698;6.314;2024-01-25T14:36:05;8.50;99.90
57829;DHT22;43657;52.698;6.314;2024-01-25T14:38:31;8.40;99.90
57829;DHT22;43657;52.698;6.314;2024-01-25T14:40:57;8.40;99.90
57829;DHT22;43657;52.698;6.314;2024-01-25T14:43:23;8.30;99.90
57829;DHT22;43657;52.698;6.314;2024-01-25T14:45:48;8.30;99.90
57829;DHT22;43657;52.698;6.314;2024-01-25T14:48:14;8.20;99.90
57829;DHT22;43657;52.698;6.314;2024-01-25T14:50:39;8.20;99.90
57829;DHT22;43657;52.698;6.314;2024-01-25T14:53:05;8.20;99.90
57829;DHT22;43657;52.698;6.314;2024-01-25T14:55:30;8.10;99.90
57829;DHT22;43657;52.698;6.314;2024-01-25T14:57:56;8.10;99.90
57829;DHT22;43657;52.698;6.314;2024-01-25T15:00:21;8.10;99.90
57829;DHT22;43657;52.698;6.314;2024-01-25T15:02:47;8.00;99.90
57829;DHT22;43657;52.698;6.314;2024-01-25T15:05:13;8.00;99.90
57829;DHT22;43657;52.698;6.314;2024-01-25T15:07:39;8.00;99.90
57829;DHT22;43657;52.698;6.314;2024-01-25T15:10:06;8.00;99.90
57829;DHT22;43657;52.698;6.314;2024-01-25T15:12:31;8.00;99.90
57829;DHT22;43657;52.698;6.314;2024-01-25T15:14:57;7.90;99.90
57829;DHT22;43657;52.698;6.314;2024-01-25T15:17:24;7.90;99.90
57829;DHT22;43657;52.698;6.314;2024-01-25T15:19:49;7.90;99.90
57829;DHT22;43657;52.698;6.314;2024-01-25T15:22:15;7.80;99.90
57829;DHT22;43657;52.698;6.314;2024-01-25T15:24:41;7.80;99.90
57829;DHT22;43657;52.698;6.314;2024-01-25T15:27:06;7.70;99.90
57829;DHT22;43657;52.698;6.314;2024-01-25T15:29:39;7.70;99.90
57829;DHT22;43657;52.698;6.314;2024-01-25T15:32:06;7.70;99.90
57829;DHT22;43657;52.698;6.314;2024-01-25T15:34:31;7.70;99.90
57829;DHT22;43657;52.698;6.314;2024-01-25T15:36:57;7.70;99.90